createdAt,value
2022-11-28T00:01:34.187Z,101303.34
2022-11-28T00:04:01.222Z,101310.22
2022-11-28T00:06:28.346Z,101305.91
2022-11-28T00:08:55.636Z,101310.22
2022-11-28T00:11:22.281Z,101314.03
2022-11-28T00:13:48.938Z,101312.00
2022-11-28T00:16:24.306Z,101310.09
2022-11-28T00:18:52.151Z,101310.94
2022-11-28T00:21:19.463Z,101307.53
2022-11-28T00:23:48.103Z,101309.28
2022-11-28T00:26:16.559Z,101307.41
2022-11-28T00:28:43.188Z,101312.41
2022-11-28T00:31:18.665Z,101313.09
2022-11-28T00:33:45.317Z,101317.53
2022-11-28T00:36:12.771Z,101309.00
2022-11-28T00:38:40.117Z,101321.47
2022-11-28T00:41:11.486Z,101316.59
2022-11-28T00:43:38.075Z,101318.25
2022-11-28T00:46:04.993Z,101322.44
2022-11-28T00:48:32.869Z,101321.47
2022-11-28T00:51:07.693Z,101324.47
2022-11-28T00:53:34.846Z,101326.78
2022-11-28T00:56:04.026Z,101317.81
2022-11-28T00:58:30.606Z,101327.84
2022-11-28T01:00:57.211Z,101327.03
2022-11-28T01:03:23.859Z,101321.63
2022-11-28T01:05:50.417Z,101321.91
2022-11-28T01:08:17.006Z,101324.87
2022-11-28T01:10:45.584Z,101322.03
2022-11-28T01:13:12.233Z,101319.22
2022-11-28T01:15:41.093Z,101319.47
2022-11-28T01:18:07.868Z,101321.75
2022-11-28T01:20:34.478Z,101322.44
2022-11-28T01:23:01.181Z,101319.84
2022-11-28T01:25:27.775Z,101319.47
2022-11-28T01:27:54.320Z,101320.25
2022-11-28T01:30:21.015Z,101314.03
2022-11-28T01:32:47.623Z,101315.37
2022-11-28T01:35:16.882Z,101315.66
2022-11-28T01:37:43.517Z,101323.12
2022-11-28T01:40:11.931Z,101317.03
2022-11-28T01:42:38.543Z,101314.59
2022-11-28T01:45:22.279Z,101309.56
2022-11-28T01:47:51.867Z,101306.31
2022-11-28T01:50:19.277Z,101296.81
2022-11-28T01:52:50.584Z,101300.88
2022-11-28T01:55:22.602Z,101294.94
2022-11-28T01:57:49.628Z,101297.50
2022-11-28T02:00:19.277Z,101290.87
2022-11-28T02:02:59.656Z,101287.47
2022-11-28T02:05:26.358Z,101280.00
2022-11-28T02:07:53.196Z,101272.41
2022-11-28T02:10:32.696Z,101272.56
2022-11-28T02:13:18.893Z,101268.38
2022-11-28T02:16:03.540Z,101271.88
2022-11-28T02:18:32.837Z,101268.22
2022-11-28T02:21:37.354Z,101268.38
2022-11-28T02:24:51.734Z,101275.69
2022-11-28T02:27:30.313Z,101270.53
2022-11-28T02:30:18.316Z,101267.69
2022-11-28T02:33:31.094Z,101253.59
2022-11-28T02:36:00.486Z,101255.50
2022-11-28T02:39:08.038Z,101257.78
2022-11-28T02:42:31.562Z,101262.12
2022-11-28T02:45:28.944Z,101253.19
2022-11-28T02:48:02.534Z,101256.31
2022-11-28T02:50:37.530Z,101247.91
2022-11-28T02:53:09.625Z,101252.38
2022-11-28T02:55:43.878Z,101245.56
2022-11-28T02:58:12.395Z,101248.03
2022-11-28T03:00:41.315Z,101236.09
2022-11-28T03:03:19.845Z,101243.69
2022-11-28T03:05:56.497Z,101239.91
2022-11-28T03:08:32.003Z,101236.00
2022-11-28T03:11:13.859Z,101234.91
2022-11-28T03:13:53.115Z,101235.06
2022-11-28T03:16:42.612Z,101230.03
2022-11-28T03:19:24.995Z,101227.19
2022-11-28T03:21:58.947Z,101232.63
2022-11-28T03:24:39.230Z,101226.09
2022-11-28T03:27:14.440Z,101225.28
2022-11-28T03:29:51.381Z,101221.34
2022-11-28T03:32:24.605Z,101222.88
2022-11-28T03:34:58.177Z,101221.09
2022-11-28T03:37:30.048Z,101217.19
2022-11-28T03:40:07.544Z,101210.53
2022-11-28T03:42:40.261Z,101217.19
2022-11-28T03:45:16.155Z,101206.47
2022-11-28T03:47:46.956Z,101197.16
2022-11-28T03:50:25.745Z,101194.16
2022-11-28T03:53:03.370Z,101190.75
2022-11-28T03:55:40.923Z,101177.34
2022-11-28T03:58:21.621Z,101182.50
2022-11-28T04:00:59.667Z,101170.81
2022-11-28T04:03:51.762Z,101165.84
2022-11-28T04:06:25.966Z,101168.69
2022-11-28T04:09:01.798Z,101172.87
2022-11-28T04:11:37.371Z,101170.19
2022-11-28T04:14:08.212Z,101165.31
2022-11-28T04:16:54.074Z,101170.44
2022-11-28T04:19:29.333Z,101165.44
2022-11-28T04:22:07.301Z,101156.78
2022-11-28T04:24:41.291Z,101156.22
2022-11-28T04:27:11.320Z,101151.63
2022-11-28T04:29:44.647Z,101157.88
2022-11-28T04:32:14.060Z,101155.56
2022-11-28T04:34:45.494Z,101159.37
2022-11-28T04:37:15.142Z,101158.84
2022-11-28T04:39:44.893Z,101146.13
2022-11-28T04:42:24.618Z,101159.22
2022-11-28T04:45:02.007Z,101149.47
2022-11-28T04:47:29.456Z,101159.03
2022-11-28T04:49:56.161Z,101151.75
2022-11-28T04:52:31.394Z,101154.84
2022-11-28T04:55:30.344Z,101162.97
2022-11-28T04:58:26.123Z,101154.06
2022-11-28T05:00:55.804Z,101156.50
2022-11-28T05:03:26.826Z,101155.00
2022-11-28T05:05:53.841Z,101155.56
2022-11-28T05:08:20.628Z,101159.63
2022-11-28T05:10:48.037Z,101162.31
2022-11-28T05:13:14.701Z,101160.44
2022-11-28T05:15:41.376Z,101152.06
2022-11-28T05:18:08.039Z,101158.13
2022-11-28T05:20:43.575Z,101155.03
2022-11-28T05:23:12.360Z,101155.87
2022-11-28T05:25:39.951Z,101163.44
2022-11-28T05:28:06.553Z,101160.59
2022-11-28T05:30:33.093Z,101166.94
2022-11-28T05:33:02.152Z,101155.19
2022-11-28T05:35:28.709Z,101158.28
2022-11-28T05:37:55.407Z,101161.41
2022-11-28T05:40:24.764Z,101164.50
2022-11-28T05:42:51.392Z,101149.22
2022-11-28T05:45:17.952Z,101158.84
2022-11-28T05:47:46.968Z,101165.31
2022-11-28T05:50:13.592Z,101170.06
2022-11-28T05:52:40.131Z,101160.97
2022-11-28T05:55:07.247Z,101173.69
2022-11-28T05:57:33.879Z,101172.63
2022-11-28T06:00:00.561Z,101177.50
2022-11-28T06:02:27.186Z,101181.28
2022-11-28T06:04:53.963Z,101184.25
2022-11-28T06:07:20.690Z,101186.03
2022-11-28T06:09:47.366Z,101187.78
2022-11-28T06:12:14.037Z,101185.22
2022-11-28T06:14:40.734Z,101187.66
2022-11-28T06:17:07.374Z,101185.22
2022-11-28T06:19:33.957Z,101187.94
2022-11-28T06:22:00.575Z,101176.56
2022-11-28T06:24:27.229Z,101186.44
2022-11-28T06:26:55.073Z,101178.75
2022-11-28T06:29:21.938Z,101179.66
2022-11-28T06:31:48.554Z,101187.78
2022-11-28T06:34:15.155Z,101182.13
2022-11-28T06:36:43.064Z,101174.78
2022-11-28T06:39:13.351Z,101179.13
2022-11-28T06:41:40.268Z,101185.09
2022-11-28T06:44:06.847Z,101176.56
2022-11-28T06:46:33.547Z,101176.97
2022-11-28T06:49:00.451Z,101183.63
2022-11-28T06:51:27.013Z,101179.13
2022-11-28T06:53:54.359Z,101187.94
2022-11-28T06:56:21.302Z,101197.81
2022-11-28T06:58:54.201Z,101207.72
2022-11-28T07:01:23.825Z,101204.06
2022-11-28T07:03:51.637Z,101212.97
2022-11-28T07:06:19.834Z,101213.53
2022-11-28T07:08:47.068Z,101218.81
2022-11-28T07:11:23.485Z,101212.72
2022-11-28T07:13:50.255Z,101213.25
2022-11-28T07:16:23.252Z,101212.19
2022-11-28T07:18:51.097Z,101212.97
2022-11-28T07:21:18.119Z,101210.78
2022-11-28T07:23:45.193Z,101210.94
2022-11-28T07:26:13.715Z,101216.78
2022-11-28T07:28:40.557Z,101219.03
2022-11-28T07:31:21.873Z,101218.41
2022-11-28T07:33:51.197Z,101215.53
2022-11-28T07:36:20.833Z,101216.50
2022-11-28T07:38:49.139Z,101215.25
2022-11-28T07:41:15.909Z,101210.44
2022-11-28T07:43:45.732Z,101208.56
2022-11-28T07:46:14.859Z,101199.47
2022-11-28T07:48:41.724Z,101195.53
2022-11-28T07:51:12.351Z,101195.94
2022-11-28T07:53:39.698Z,101183.78
2022-11-28T07:56:09.837Z,101191.78
2022-11-28T07:58:38.979Z,101185.56
2022-11-28T08:01:13.548Z,101180.81
2022-11-28T08:03:40.812Z,101180.19
2022-11-28T08:06:08.296Z,101187.72
2022-11-28T08:08:35.455Z,101178.81
2022-11-28T08:11:05.255Z,101186.47
2022-11-28T08:13:32.250Z,101188.84
2022-11-28T08:15:59.154Z,101181.91
2022-11-28T08:18:25.742Z,101179.47
2022-11-28T08:20:55.143Z,101179.37
2022-11-28T08:23:21.706Z,101178.31
2022-11-28T08:25:48.270Z,101173.69
2022-11-28T08:28:14.885Z,101168.81
2022-11-28T08:30:41.480Z,101178.53
2022-11-28T08:33:08.053Z,101179.56
2022-11-28T08:35:35.112Z,101182.69
2022-11-28T08:38:02.288Z,101185.38
2022-11-28T08:40:29.170Z,101186.09
2022-11-28T08:42:55.903Z,101179.97
2022-11-28T08:45:22.532Z,101186.47
2022-11-28T08:47:49.137Z,101189.28
2022-11-28T08:50:15.848Z,101190.09
2022-11-28T08:52:42.629Z,101193.00
2022-11-28T08:55:09.568Z,101189.34
2022-11-28T08:57:36.136Z,101189.00
2022-11-28T09:00:03.127Z,101194.56
2022-11-28T09:02:29.682Z,101192.94
2022-11-28T09:04:56.271Z,101199.03
2022-11-28T09:07:22.883Z,101191.06
2022-11-28T09:09:49.736Z,101187.25
2022-11-28T09:12:16.804Z,101185.28
2022-11-28T09:14:43.460Z,101193.97
2022-11-28T09:17:10.271Z,101183.06
2022-11-28T09:19:36.903Z,101187.13
2022-11-28T09:22:03.632Z,101175.31
2022-11-28T09:24:30.682Z,101176.06
2022-11-28T09:26:57.227Z,101173.13
2022-11-28T09:29:23.821Z,101169.59
2022-11-28T09:31:50.539Z,101168.44
2022-11-28T09:34:17.091Z,101168.78
2022-11-28T09:36:43.758Z,101167.38
2022-11-28T09:39:10.302Z,101157.88
2022-11-28T09:41:54.422Z,101155.87
2022-11-28T09:44:41.236Z,101151.16
2022-11-28T09:47:18.318Z,101149.37
2022-11-28T09:50:20.860Z,101155.13
2022-11-28T09:52:57.894Z,101152.59
2022-11-28T09:55:54.641Z,101143.47
2022-11-28T09:58:30.527Z,101141.87
2022-11-28T10:01:15.290Z,101131.59
2022-11-28T10:03:59.819Z,101136.62
2022-11-28T10:06:40.409Z,101137.56
2022-11-28T10:09:18.895Z,101131.34
2022-11-28T10:12:04.358Z,101135.66
2022-11-28T10:14:36.928Z,101128.59
2022-11-28T10:17:34.607Z,101126.97
2022-11-28T10:20:10.848Z,101126.47
2022-11-28T10:22:40.290Z,101122.06
2022-11-28T10:25:16.968Z,101119.25
2022-11-28T10:27:43.988Z,101121.72
2022-11-28T10:30:23.918Z,101120.50
2022-11-28T10:33:13.275Z,101116.53
2022-11-28T10:35:53.943Z,101110.69
2022-11-28T10:38:25.686Z,101107.78
2022-11-28T10:41:04.839Z,101104.91
2022-11-28T10:43:44.186Z,101101.34
2022-11-28T10:46:43.028Z,101101.25
2022-11-28T10:49:09.548Z,101093.66
2022-11-28T10:51:51.107Z,101081.97
2022-11-28T10:54:23.825Z,101085.47
2022-11-28T10:56:58.639Z,101082.56
2022-11-28T10:59:50.079Z,101077.87
2022-11-28T11:02:26.766Z,101072.00
2022-11-28T11:04:53.469Z,101077.22
2022-11-28T11:07:29.927Z,101078.94
2022-11-28T11:10:22.788Z,101071.31
2022-11-28T11:12:53.446Z,101064.59
2022-11-28T11:15:24.490Z,101074.13
2022-11-28T11:17:51.958Z,101073.25
2022-11-28T11:20:32.411Z,101069.34
2022-11-28T11:23:02.621Z,101074.34
2022-11-28T11:25:32.564Z,101072.97
2022-11-28T11:28:01.791Z,101066.88
2022-11-28T11:30:39.427Z,101063.03
2022-11-28T11:33:13.059Z,101061.75
2022-11-28T11:35:49.361Z,101072.38
2022-11-28T11:38:17.744Z,101066.53
2022-11-28T11:40:44.849Z,101064.28
2022-11-28T11:43:31.205Z,101057.19
2022-11-28T11:46:12.684Z,101061.53
2022-11-28T11:48:41.711Z,101057.97
2022-11-28T11:51:39.374Z,101050.06
2022-11-28T11:54:16.535Z,101061.44
2022-11-28T11:56:46.892Z,101055.13
2022-11-28T11:59:20.204Z,101049.00
2022-11-28T12:01:50.492Z,101046.19
2022-11-28T12:04:45.105Z,101048.72
2022-11-28T12:07:24.935Z,101049.94
2022-11-28T12:09:55.701Z,101048.56
2022-11-28T12:12:32.288Z,101040.25
2022-11-28T12:14:58.898Z,101037.03
2022-11-28T12:17:57.257Z,101040.63
2022-11-28T12:20:44.182Z,101036.56
2022-11-28T12:23:33.947Z,101036.72
2022-11-28T12:26:31.702Z,101028.72
2022-11-28T12:29:03.977Z,101028.41
2022-11-28T12:32:01.642Z,101029.94
2022-11-28T12:34:40.389Z,101035.91
2022-11-28T12:38:08.919Z,101028.34
2022-11-28T12:40:38.721Z,101028.53
2022-11-28T12:43:33.083Z,101027.34
2022-11-28T12:46:02.725Z,101021.84
2022-11-28T12:48:53.061Z,101019.84
2022-11-28T12:52:02.055Z,101022.88
2022-11-28T12:54:34.860Z,101024.50
2022-11-28T12:57:15.676Z,101028.19
2022-11-28T13:00:08.649Z,101020.94
2022-11-28T13:02:52.224Z,101017.66
2022-11-28T13:05:28.073Z,101015.47
2022-11-28T13:08:23.686Z,101021.13
2022-11-28T13:11:18.260Z,101012.19
2022-11-28T13:13:44.771Z,101014.62
2022-11-28T13:16:48.002Z,101011.41
2022-11-28T13:19:29.835Z,101009.25
2022-11-28T13:22:02.694Z,101013.97
2022-11-28T13:24:43.857Z,101016.22
2022-11-28T13:27:22.102Z,101013.37
2022-11-28T13:29:54.712Z,101006.81
2022-11-28T13:32:30.890Z,101004.41
2022-11-28T13:34:58.802Z,101005.94
2022-11-28T13:40:42.294Z,101006.94
2022-11-28T13:43:44.033Z,100997.19
2022-11-28T13:46:10.962Z,101000.69
2022-11-28T13:49:06.199Z,101003.06
2022-11-28T13:51:31.554Z,101006.00
2022-11-28T13:54:17.507Z,100998.34
2022-11-28T13:57:03.841Z,101002.22
2022-11-28T13:59:32.122Z,101001.56
2022-11-28T14:02:05.150Z,100993.22
2022-11-28T14:04:33.036Z,101003.53
2022-11-28T14:07:03.980Z,100999.50
2022-11-28T14:09:49.422Z,101004.00
2022-11-28T14:12:18.823Z,100997.66
2022-11-28T14:15:19.920Z,100997.44
2022-11-28T14:17:50.458Z,100993.78
2022-11-28T14:20:16.848Z,100985.03
2022-11-28T14:22:49.330Z,100981.44
2022-11-28T14:25:18.951Z,100986.78
2022-11-28T14:27:59.058Z,100980.97
2022-11-28T14:30:34.856Z,100989.00
2022-11-28T14:33:06.124Z,100984.12
2022-11-28T14:35:50.905Z,100980.63
2022-11-28T14:38:35.378Z,100982.25
2022-11-28T14:41:06.705Z,100980.63
2022-11-28T14:43:34.917Z,100989.94
2022-11-28T14:46:16.725Z,100981.97
2022-11-28T14:48:58.798Z,100986.25
2022-11-28T14:51:44.250Z,100978.44
2022-11-28T14:54:37.316Z,100986.53
2022-11-28T14:57:18.651Z,100985.28
2022-11-28T14:59:47.168Z,100987.84
2022-11-28T15:02:13.942Z,100986.19
2022-11-28T15:04:46.644Z,100988.94
2022-11-28T15:07:23.896Z,100982.41
2022-11-28T15:10:07.451Z,100980.63
2022-11-28T15:12:52.934Z,100983.69
2022-11-28T15:15:20.668Z,100982.97
2022-11-28T15:17:51.602Z,100989.78
2022-11-28T15:20:38.895Z,100990.66
2022-11-28T15:23:05.499Z,100987.72
2022-11-28T15:25:39.894Z,100989.50
2022-11-28T15:28:14.731Z,100993.03
2022-11-28T15:30:50.576Z,100996.66
2022-11-28T15:33:17.889Z,100990.38
2022-11-28T15:36:10.781Z,100992.81
2022-11-28T15:38:38.065Z,100996.19
2022-11-28T15:41:04.830Z,100988.59
2022-11-28T15:43:32.460Z,100994.97
2022-11-28T15:46:02.690Z,100998.78
2022-11-28T15:48:40.469Z,100998.66
2022-11-28T15:51:07.941Z,101004.09
2022-11-28T15:53:41.080Z,100996.75
2022-11-28T15:56:10.604Z,101002.00
2022-11-28T15:58:37.851Z,101002.00
2022-11-28T16:01:21.765Z,101002.13
2022-11-28T16:04:10.454Z,101004.44
2022-11-28T16:06:39.698Z,101005.03
2022-11-28T16:09:24.167Z,101010.37
2022-11-28T16:11:53.069Z,101016.56
2022-11-28T16:14:29.284Z,101012.28
2022-11-28T16:17:01.259Z,101016.44
2022-11-28T16:19:34.109Z,101022.41
2022-11-28T16:22:04.547Z,101017.03
2022-11-28T16:24:46.585Z,101014.25
2022-11-28T16:27:36.425Z,101015.88
2022-11-28T16:30:24.377Z,101011.31
2022-11-28T16:32:52.890Z,101007.00
2022-11-28T16:35:45.624Z,101009.44
2022-11-28T16:38:23.074Z,101003.28
2022-11-28T16:40:51.013Z,101010.72
2022-11-28T16:43:22.266Z,101006.31
2022-11-28T16:45:57.985Z,101009.47
2022-11-28T16:48:27.185Z,101000.38
2022-11-28T16:51:02.951Z,101001.53
2022-11-28T16:53:45.997Z,101001.69
2022-11-28T16:56:32.706Z,101003.66
2022-11-28T16:59:19.141Z,101007.41
2022-11-28T17:01:48.445Z,101008.12
2022-11-28T17:04:41.370Z,101007.44
2022-11-28T17:07:14.098Z,101005.22
2022-11-28T17:09:45.683Z,101007.78
2022-11-28T17:12:27.310Z,101006.03
2022-11-28T17:14:55.413Z,101006.25
2022-11-28T17:17:23.524Z,101007.78
2022-11-28T17:19:50.640Z,101009.06
2022-11-28T17:22:20.257Z,101000.47
2022-11-28T17:24:56.747Z,101004.16
2022-11-28T17:27:23.340Z,101001.97
2022-11-28T17:29:49.896Z,100996.03
2022-11-28T17:32:16.493Z,101003.16
2022-11-28T17:34:46.052Z,101005.81
2022-11-28T17:37:12.997Z,101000.94
2022-11-28T17:39:39.569Z,101011.62
2022-11-28T17:42:06.582Z,101012.78
2022-11-28T17:44:36.151Z,101013.59
2022-11-28T17:47:03.522Z,101013.94
2022-11-28T17:49:30.988Z,101021.97
2022-11-28T17:51:57.848Z,101014.50
2022-11-28T17:54:27.382Z,101019.38
2022-11-28T17:56:54.737Z,101014.28
2022-11-28T17:59:23.476Z,101018.56
2022-11-28T18:01:50.726Z,101013.94
2022-11-28T18:04:17.776Z,101016.16
2022-11-28T18:06:46.613Z,101021.25
2022-11-28T18:09:16.410Z,101015.12
2022-11-28T18:11:43.227Z,101018.72
2022-11-28T18:14:10.179Z,101011.97
2022-11-28T18:16:40.307Z,101010.69
2022-11-28T18:19:07.040Z,101022.19
2022-11-28T18:21:33.672Z,101008.94
2022-11-28T18:24:02.464Z,101014.16
2022-11-28T18:26:29.046Z,101012.28
2022-11-28T18:28:58.161Z,101004.16
2022-11-28T18:31:29.347Z,101013.44
2022-11-28T18:34:01.996Z,101014.75
2022-11-28T18:36:31.095Z,101011.50
2022-11-28T18:38:59.438Z,101019.50
2022-11-28T18:41:26.512Z,101014.22
2022-11-28T18:43:57.339Z,101023.31
2022-11-28T18:46:25.429Z,101024.97
2022-11-28T18:48:52.181Z,101016.72
2022-11-28T18:51:23.879Z,101030.63
2022-11-28T18:53:54.140Z,101023.09
2022-11-28T18:56:27.150Z,101022.63
2022-11-28T18:58:54.485Z,101023.47
2022-11-28T19:01:28.338Z,101017.28
2022-11-28T19:04:03.197Z,101023.59
2022-11-28T19:06:30.247Z,101020.66
2022-11-28T19:08:58.496Z,101018.38
2022-11-28T19:11:25.835Z,101016.84
2022-11-28T19:13:53.700Z,101014.88
2022-11-28T19:16:26.013Z,101015.00
2022-11-28T19:18:53.050Z,101017.66
2022-11-28T19:21:27.224Z,101009.16
2022-11-28T19:23:55.195Z,101023.47
2022-11-28T19:26:27.489Z,101018.94
2022-11-28T19:28:56.582Z,101016.63
2022-11-28T19:31:27.220Z,101015.69
2022-11-28T19:34:03.893Z,101021.59
2022-11-28T19:36:40.607Z,101022.41
2022-11-28T19:39:09.498Z,101024.28
2022-11-28T19:41:36.128Z,101026.25
2022-11-28T19:44:02.709Z,101017.19
2022-11-28T19:46:35.017Z,101023.94
2022-11-28T19:49:03.120Z,101023.94
2022-11-28T19:51:29.704Z,101025.31
2022-11-28T19:54:02.656Z,101023.25
2022-11-28T19:56:32.549Z,101025.44
2022-11-28T19:58:59.565Z,101022.28
2022-11-28T20:01:28.804Z,101021.84
2022-11-28T20:03:55.570Z,101022.75
2022-11-28T20:06:27.991Z,101023.87
2022-11-28T20:08:58.231Z,101019.44
2022-11-28T20:11:29.738Z,101018.31
2022-11-28T20:14:12.373Z,101020.75
2022-11-28T20:16:41.596Z,101011.09
2022-11-28T20:19:08.240Z,101009.69
2022-11-28T20:21:35.324Z,101020.03
2022-11-28T20:24:05.241Z,101019.56
2022-11-28T20:26:35.617Z,101010.84
2022-11-28T20:29:02.370Z,101019.22
2022-11-28T20:31:31.640Z,101009.91
2022-11-28T20:33:58.683Z,101014.78
2022-11-28T20:36:27.978Z,101014.13
2022-11-28T20:38:55.654Z,101008.47
2022-11-28T20:41:24.121Z,101008.59
2022-11-28T20:43:51.155Z,101011.16
2022-11-28T20:46:21.080Z,101012.53
2022-11-28T20:48:48.348Z,101014.00
2022-11-28T20:51:20.830Z,101015.88
2022-11-28T20:53:47.843Z,100998.22
2022-11-28T20:56:19.558Z,101005.12
2022-11-28T20:58:46.243Z,101004.09
2022-11-28T21:01:18.910Z,101011.22
2022-11-28T21:03:45.652Z,101016.19
2022-11-28T21:06:12.885Z,101012.12
2022-11-28T21:08:40.225Z,101010.53
2022-11-28T21:11:36.995Z,101010.53
2022-11-28T21:14:06.029Z,101012.97
2022-11-28T21:16:34.720Z,101013.25
2022-11-28T21:19:07.615Z,101020.00
2022-11-28T21:21:36.146Z,101017.78
2022-11-28T21:24:07.036Z,101023.00
2022-11-28T21:26:40.997Z,101024.75
2022-11-28T21:29:12.008Z,101023.59
2022-11-28T21:31:42.029Z,101021.84
2022-11-28T21:34:14.275Z,101023.25
2022-11-28T21:36:41.912Z,101022.19
2022-11-28T21:39:18.725Z,101017.78
2022-11-28T21:41:46.280Z,101014.88
2022-11-28T21:44:12.941Z,101026.03
2022-11-28T21:46:39.529Z,101027.63
2022-11-28T21:49:06.107Z,101021.59
2022-11-28T21:51:32.723Z,101019.72
2022-11-28T21:53:59.298Z,101023.44
2022-11-28T21:56:26.237Z,101032.75
2022-11-28T21:58:52.875Z,101028.22
2022-11-28T22:01:21.270Z,101025.97
2022-11-28T22:03:48.636Z,101035.97
2022-11-28T22:06:23.629Z,101035.16
2022-11-28T22:08:51.612Z,101024.44
2022-11-28T22:11:19.275Z,101035.16
2022-11-28T22:13:46.967Z,101032.97
2022-11-28T22:16:23.270Z,101032.25
2022-11-28T22:18:52.728Z,101021.03
2022-11-28T22:21:50.466Z,101021.03
2022-11-28T22:24:06.526Z,101024.06
2022-11-28T22:26:33.389Z,101029.31
2022-11-28T22:29:01.025Z,101029.81
2022-11-28T22:31:27.917Z,101032.34
2022-11-28T22:33:54.623Z,101031.62
2022-11-28T22:36:21.934Z,101038.38
2022-11-28T22:38:53.542Z,101031.03
2022-11-28T22:41:27.960Z,101032.06
2022-11-28T22:43:59.061Z,101037.88
2022-11-28T22:46:27.737Z,101031.81
2022-11-28T22:48:55.572Z,101023.41
2022-11-28T22:51:24.592Z,101028.72
2022-11-28T22:53:55.523Z,101024.16
2022-11-28T22:56:23.066Z,101026.38
2022-11-28T22:58:49.795Z,101023.72
2022-11-28T23:01:19.393Z,101029.63
2022-11-28T23:03:46.731Z,101022.75
2022-11-28T23:06:20.457Z,101017.75
2022-11-28T23:08:53.395Z,101030.13
2022-11-28T23:11:24.120Z,101030.91
2022-11-28T23:13:51.649Z,101029.13
2022-11-28T23:16:21.178Z,101034.38
2022-11-28T23:18:49.886Z,101039.19
2022-11-28T23:21:18.255Z,101040.00
2022-11-28T23:23:45.922Z,101036.50
2022-11-28T23:26:21.036Z,101030.47
2022-11-28T23:28:48.162Z,101030.47
2022-11-28T23:31:16.080Z,101022.59
2022-11-28T23:33:43.411Z,101021.09
2022-11-28T23:36:22.121Z,101021.31
2022-11-28T23:38:52.222Z,101024.81
2022-11-28T23:41:19.575Z,101024.44
2022-11-28T23:43:46.447Z,101019.44
2022-11-28T23:46:15.112Z,101017.34
2022-11-28T23:48:43.681Z,101021.09
2022-11-28T23:51:12.917Z,101027.72
2022-11-28T23:53:40.527Z,101022.84
2022-11-28T23:56:13.012Z,101031.88
2022-11-28T23:58:41.962Z,101024.78
